Philadelphia, Pennsylvania
Traffic Map
Current Weather Conditions
Philadelphia, Pennsylvania
Overcast Light Rain
Overcast
56°
Feels Like: 56°
Wind Chill: 56° Ceiling: 700
Heat Index: 56° Visibility: 10mi
Dew Point: 54° Wind: 15mph
Humidity: 93% Direction: 40° (NE)
Pressure: 29.7in Gusts: 0mph
Raw Report DataKPHL 260841Z 04013KT 10SM -RA BKN007 OVC012 13/12 A2970 RMK AO2 P0001 T01330122 $
Traffic Incident Summary
Active as of:
Severity:
Category:
InformationThere was an issue retrieving the traffic information for this location. Please try a different location or try again shortly.
Advertisements
Track Severe Weather on mobile